Terminal Aerodrome Forecast
Issued by NWS

Home | Current Version | Previous Version | Text Only | Print | Product List | Glossary On
Versions: 1 2 3 4 5 6 7 8 9 10 11 12
853
FTUS46 KSEW 260520
TAFBLI
TAF
KBLI 260520Z 2606/2706 16012KT P6SM SCT035
     FM260900 17012KT P6SM OVC030
     FM261100 17014G20KT P6SM OVC020
     FM262100 17012G18KT P6SM -SHRA OVC035=

USA.gov is the U.S. government's official web portal to all federal, state and local government web resources and services.